首页
METAR-TAF:

METAR-TAF

机场 :

阿必尚國際機場

阿比让, 科特迪瓦

纬度: 05-15N, 经度: 003-56W, 海拔: 7米

当前天气观测

该预报发布于15分钟前的12:00 UTC
风速7节,风向,在东南西南之间变化
温度 31°C
湿度 66%
气压 1010 hPa
能见度10公里或以上
少量云层高于1200英尺

METAR: DIAP 091200Z 19007KT 130V230 9999 FEW012 31/24 Q1010 NOSIG

时间: 12:15 (12:15 UTC)

预报

该预报发布于1小时和13分钟前的11:02 UTC
预报有效从09日的 12点(UTC)到 10日的 18点(UTC)
风速9节,风向南转西南
能见度10公里或以上
散云层高于1200英尺
几率 30% :
短暂存在
从 09日的 15点(UTC)到 09日的 20点(UTC)
多云层高于1200英尺
少量云层高于2000英尺, 积雨云.
雷暴
几率 30% :
短暂存在
从 10日的 00点(UTC)到 10日的 05点(UTC)
能見度: 4000
多云层高于1000英尺
多云层高于3000英尺
成为
从 10日的 07点(UTC)到 10日的 09点(UTC)
多云层高于1200英尺
少量云层高于2000英尺, 积雨云.
雷暴
短暂存在
从 10日的 10点(UTC)到 10日的 16点(UTC)
能見度: 3000
多云层高于1000英尺
少量云层高于2000英尺, 积雨云.
多云层高于3000英尺
雷暴, 雨

TAF: DIAP 091102Z 0912/1018 21009KT 9999 SCT012 PROB30 TEMPO 0915/0920 TS BKN012 FEW020CB PROB30 TEMPO 1000/1005 4000 RA BKN010 BKN030 BECMG 1007/1009 TS BKN012 FEW020CB TEMPO 1010/1016 3000 TSRA BKN010 FEW020CB BKN030

超过4000个机场的气象观测和天气预报(METAR&TAF报告)。

可查询的气象台以黄色和红色小点在地图上表示。

将鼠标移到小点上方,可查看气象台名称。

然后点击查看天气观测和预报。

如需切换地图:点击带黑十字的绿色按钮放大地图;点击带横线的绿色按钮缩小地图;或者点击绿色箭头查看邻近地区的地图。


METAR-TAF: